createdAt,value
2022-10-08T00:01:46.203Z,101127.47
2022-10-08T00:04:15.780Z,101128.66
2022-10-08T00:06:43.951Z,101120.19
2022-10-08T00:09:12.084Z,101115.22
2022-10-08T00:11:41.067Z,101124.13
2022-10-08T00:14:10.154Z,101115.84
2022-10-08T00:16:39.860Z,101117.41
2022-10-08T00:19:11.302Z,101120.72
2022-10-08T00:21:43.191Z,101121.22
2022-10-08T00:24:14.891Z,101120.63
2022-10-08T00:26:44.567Z,101117.59
2022-10-08T00:29:14.576Z,101111.34
2022-10-08T00:31:45.400Z,101103.47
2022-10-08T00:34:15.547Z,101105.66
2022-10-08T00:36:46.847Z,101100.47
2022-10-08T00:39:17.438Z,101099.72
2022-10-08T00:41:50.185Z,101098.44
2022-10-08T00:44:51.293Z,101106.66
2022-10-08T00:47:24.152Z,101105.22
2022-10-08T00:49:55.733Z,101113.66
2022-10-08T00:52:27.615Z,101107.91
2022-10-08T00:54:55.773Z,101099.44
2022-10-08T00:57:24.234Z,101102.16
2022-10-08T00:59:52.468Z,101096.00
2022-10-08T01:02:20.711Z,101093.25
2022-10-08T01:04:49.713Z,101088.88
2022-10-08T01:07:23.481Z,101079.75
2022-10-08T01:10:01.982Z,101083.13
2022-10-08T01:12:41.594Z,101081.53
2022-10-08T01:15:16.355Z,101080.72
2022-10-08T01:17:58.510Z,101079.94
2022-10-08T01:20:37.271Z,101080.50
2022-10-08T01:23:30.803Z,101077.09
2022-10-08T01:26:12.752Z,101074.84
2022-10-08T01:28:45.338Z,101076.66
2022-10-08T01:31:19.104Z,101069.56
2022-10-08T01:33:54.313Z,101067.63
2022-10-08T01:36:24.437Z,101077.22
2022-10-08T01:38:56.209Z,101070.81
2022-10-08T01:41:27.412Z,101078.13
2022-10-08T01:44:02.534Z,101066.38
2022-10-08T01:46:32.761Z,101065.72
2022-10-08T01:49:06.846Z,101063.09
2022-10-08T01:51:40.075Z,101066.66
2022-10-08T01:54:10.731Z,101061.59
2022-10-08T01:56:41.037Z,101047.91
2022-10-08T01:59:15.468Z,101049.78
2022-10-08T02:01:55.473Z,101057.78
2022-10-08T02:04:34.098Z,101050.28
2022-10-08T02:07:05.767Z,101049.59
2022-10-08T02:09:36.492Z,101043.03
2022-10-08T02:12:05.685Z,101044.00
2022-10-08T02:14:36.716Z,101046.75
2022-10-08T02:17:18.037Z,101047.75
2022-10-08T02:19:54.357Z,101040.56
2022-10-08T02:22:27.789Z,101046.75
2022-10-08T02:25:01.688Z,101053.28
2022-10-08T02:27:40.461Z,101037.88
2022-10-08T02:30:12.442Z,101045.00
2022-10-08T02:32:50.832Z,101035.13
2022-10-08T02:35:25.281Z,101034.81
2022-10-08T02:37:59.916Z,101043.59
2022-10-08T02:40:30.920Z,101037.84
2022-10-08T02:43:02.835Z,101041.47
2022-10-08T02:45:37.257Z,101039.38
2022-10-08T02:48:08.348Z,101047.66
2022-10-08T02:50:40.117Z,101040.09
2022-10-08T02:53:14.493Z,101042.47
2022-10-08T02:55:49.303Z,101052.03
2022-10-08T02:58:18.307Z,101053.78
2022-10-08T03:00:52.497Z,101063.41
2022-10-08T03:03:24.148Z,101063.41
2022-10-08T03:05:53.294Z,101072.38
2022-10-08T03:08:22.507Z,101072.59
2022-10-08T03:10:51.208Z,101062.94
2022-10-08T03:13:21.054Z,101075.94
2022-10-08T03:15:54.561Z,101064.09
2022-10-08T03:18:25.267Z,101063.41
2022-10-08T03:20:55.849Z,101066.94
2022-10-08T03:23:25.040Z,101070.38
2022-10-08T03:25:53.153Z,101080.25
2022-10-08T03:28:21.366Z,101076.44
2022-10-08T03:30:49.576Z,101071.69
2022-10-08T03:33:19.080Z,101082.25
2022-10-08T03:35:48.019Z,101086.81
2022-10-08T03:38:16.985Z,101084.16
2022-10-08T03:40:54.030Z,101090.91
2022-10-08T03:43:22.281Z,101091.97
2022-10-08T03:45:52.695Z,101095.69
2022-10-08T03:48:23.454Z,101085.53
2022-10-08T03:50:52.918Z,101086.31
2022-10-08T03:53:21.695Z,101084.34
2022-10-08T03:55:50.080Z,101085.38
2022-10-08T03:58:18.828Z,101081.44
2022-10-08T04:00:58.165Z,101079.78
2022-10-08T04:03:29.464Z,101083.38
2022-10-08T04:05:57.732Z,101073.94
2022-10-08T04:08:26.416Z,101076.25
2022-10-08T04:10:54.576Z,101078.00
2022-10-08T04:13:23.351Z,101079.06
2022-10-08T04:15:51.604Z,101077.78
2022-10-08T04:18:19.879Z,101082.44
2022-10-08T04:20:49.316Z,101076.53
2022-10-08T04:23:17.438Z,101085.38
2022-10-08T04:25:51.844Z,101083.81
2022-10-08T04:28:20.700Z,101083.34
2022-10-08T04:30:56.453Z,101074.03
2022-10-08T04:33:25.364Z,101078.03
2022-10-08T04:35:59.837Z,101088.03
2022-10-08T04:38:28.858Z,101088.41
2022-10-08T04:41:05.063Z,101107.09
2022-10-08T04:43:33.521Z,101110.66
2022-10-08T04:46:02.271Z,101100.78
2022-10-08T04:48:30.479Z,101097.88
2022-10-08T04:51:04.094Z,101102.56
2022-10-08T04:53:34.936Z,101098.09
2022-10-08T04:56:10.892Z,101101.94
2022-10-08T04:58:39.278Z,101105.19
2022-10-08T05:01:09.723Z,101103.59
2022-10-08T05:03:38.757Z,101095.50
2022-10-08T05:06:09.633Z,101096.97
2022-10-08T05:08:38.424Z,101101.97
2022-10-08T05:11:06.572Z,101106.66
2022-10-08T05:13:35.563Z,101102.63
2022-10-08T05:16:05.226Z,101105.75
2022-10-08T05:18:34.266Z,101101.84
2022-10-08T05:21:08.547Z,101103.00
2022-10-08T05:23:37.406Z,101112.09
2022-10-08T05:26:12.921Z,101118.63
2022-10-08T05:28:41.092Z,101111.34
2022-10-08T05:31:09.376Z,101109.97
2022-10-08T05:33:37.857Z,101117.50
2022-10-08T05:36:09.088Z,101121.28
2022-10-08T05:38:37.417Z,101121.78
2022-10-08T05:41:10.525Z,101127.00
2022-10-08T05:43:38.977Z,101128.69
2022-10-08T05:46:07.798Z,101136.56
2022-10-08T05:48:36.214Z,101128.69
2022-10-08T05:51:05.409Z,101134.78
2022-10-08T05:53:37.246Z,101135.50
2022-10-08T05:56:07.742Z,101143.88
2022-10-08T05:58:37.764Z,101149.16
2022-10-08T06:01:14.033Z,101146.44
2022-10-08T06:03:42.201Z,101145.00
2022-10-08T06:06:12.377Z,101151.38
2022-10-08T06:08:42.269Z,101140.16
2022-10-08T06:11:10.465Z,101142.72
2022-10-08T06:13:38.605Z,101137.19
2022-10-08T06:16:08.751Z,101130.59
2022-10-08T06:18:39.310Z,101129.88
2022-10-08T06:21:09.857Z,101125.88
2022-10-08T06:23:39.577Z,101128.66
2022-10-08T06:26:10.448Z,101131.31
2022-10-08T06:28:40.071Z,101139.09
2022-10-08T06:31:09.367Z,101144.56
2022-10-08T06:33:37.857Z,101145.75
2022-10-08T06:36:07.785Z,101148.66
2022-10-08T06:38:35.969Z,101166.47
2022-10-08T06:41:04.087Z,101158.88
2022-10-08T06:43:33.520Z,101162.31
2022-10-08T06:46:05.197Z,101173.03
2022-10-08T06:48:34.037Z,101182.47
2022-10-08T06:51:04.041Z,101183.22
2022-10-08T06:53:32.687Z,101181.56
2022-10-08T06:56:03.155Z,101181.78
2022-10-08T06:58:32.601Z,101184.09
2022-10-08T07:01:06.042Z,101181.53
2022-10-08T07:03:34.957Z,101187.53
2022-10-08T07:06:05.001Z,101191.69
2022-10-08T07:08:33.435Z,101189.56
2022-10-08T07:11:05.915Z,101183.94
2022-10-08T07:13:36.227Z,101177.84
2022-10-08T07:16:05.620Z,101176.69
2022-10-08T07:18:35.516Z,101170.25
2022-10-08T07:21:04.387Z,101164.72
2022-10-08T07:23:32.548Z,101164.16
2022-10-08T07:26:02.879Z,101168.66
2022-10-08T07:28:33.723Z,101162.53
2022-10-08T07:31:06.229Z,101162.78
2022-10-08T07:33:34.812Z,101151.41
2022-10-08T07:36:10.523Z,101151.22
2022-10-08T07:38:39.152Z,101147.00
2022-10-08T07:41:08.481Z,101147.38
2022-10-08T07:43:37.312Z,101140.06
2022-10-08T07:46:08.718Z,101131.75
2022-10-08T07:48:37.192Z,101132.94
2022-10-08T07:51:12.823Z,101138.25
2022-10-08T07:53:41.372Z,101120.44
2022-10-08T07:56:11.759Z,101114.44
2022-10-08T07:58:40.707Z,101116.09
2022-10-08T08:01:14.146Z,101117.94
2022-10-08T08:03:42.645Z,101093.22
2022-10-08T08:06:13.140Z,101086.03
2022-10-08T08:08:43.285Z,101072.59
2022-10-08T08:11:13.576Z,101063.69
2022-10-08T08:13:42.956Z,101065.41
2022-10-08T08:16:14.091Z,101067.75
2022-10-08T08:18:44.158Z,101062.84
2022-10-08T08:21:14.704Z,101057.94
2022-10-08T08:23:44.531Z,101052.47
2022-10-08T08:26:14.832Z,101057.34
2022-10-08T08:28:43.113Z,101057.91
2022-10-08T08:31:14.549Z,101063.06
2022-10-08T08:33:44.203Z,101070.41
2022-10-08T08:36:12.299Z,101068.16
2022-10-08T08:38:40.798Z,101081.81
2022-10-08T08:41:23.293Z,101083.44
2022-10-08T08:43:58.500Z,101089.41
2022-10-08T08:46:32.790Z,101088.13
2022-10-08T08:49:06.855Z,101079.69
2022-10-08T08:51:35.524Z,101090.81
2022-10-08T08:54:03.732Z,101093.22
2022-10-08T08:56:33.897Z,101088.75
2022-10-08T08:59:23.299Z,101086.84
2022-10-08T09:01:57.149Z,101102.44
2022-10-08T09:04:34.897Z,101095.59
2022-10-08T09:07:07.709Z,101099.69
2022-10-08T09:09:39.624Z,101096.66
2022-10-08T09:12:20.425Z,101103.69
2022-10-08T09:14:53.047Z,101105.00
2022-10-08T09:17:30.059Z,101113.53
2022-10-08T09:19:58.915Z,101107.09
2022-10-08T09:22:29.577Z,101107.53
2022-10-08T09:25:00.859Z,101108.00
2022-10-08T09:27:44.582Z,101117.06
2022-10-08T09:30:32.920Z,101114.50
2022-10-08T09:33:16.669Z,101106.25
2022-10-08T09:35:47.022Z,101112.34
2022-10-08T09:38:22.969Z,101107.31
2022-10-08T09:41:05.911Z,101103.28
2022-10-08T09:43:35.183Z,101116.88
2022-10-08T09:46:11.896Z,101121.41
2022-10-08T09:48:43.283Z,101119.38
2022-10-08T09:51:15.896Z,101123.47
2022-10-08T09:53:47.816Z,101123.19
2022-10-08T09:56:16.673Z,101117.44
2022-10-08T09:58:55.865Z,101118.25
2022-10-08T10:01:25.226Z,101123.19
2022-10-08T10:03:57.441Z,101127.00
2022-10-08T10:06:28.644Z,101120.81
2022-10-08T10:09:02.400Z,101116.63
2022-10-08T10:11:37.638Z,101119.16
2022-10-08T10:14:19.101Z,101121.72
2022-10-08T10:16:50.303Z,101128.06
2022-10-08T10:19:23.368Z,101127.34
2022-10-08T10:21:57.842Z,101131.22
2022-10-08T10:24:41.324Z,101135.06
2022-10-08T10:27:14.680Z,101132.81
2022-10-08T10:29:54.332Z,101138.56
2022-10-08T10:32:31.114Z,101136.22
2022-10-08T10:35:10.722Z,101139.44
2022-10-08T10:37:46.659Z,101143.94
2022-10-08T10:40:34.122Z,101141.09
2022-10-08T10:43:15.513Z,101136.34
2022-10-08T10:45:49.063Z,101133.53
2022-10-08T10:48:17.382Z,101131.09
2022-10-08T10:50:59.193Z,101142.69
2022-10-08T10:53:41.431Z,101140.34
2022-10-08T10:56:15.119Z,101139.00
2022-10-08T10:59:06.366Z,101138.78
2022-10-08T11:01:43.669Z,101140.47
2022-10-08T11:04:21.749Z,101136.13
2022-10-08T11:07:01.228Z,101130.72
2022-10-08T11:09:36.861Z,101136.09
2022-10-08T11:12:18.560Z,101139.69
2022-10-08T11:14:58.200Z,101139.59
2022-10-08T11:17:43.948Z,101153.22
2022-10-08T11:20:38.240Z,101145.59
2022-10-08T11:23:21.119Z,101138.41
2022-10-08T11:26:19.085Z,101147.44
2022-10-08T11:28:50.031Z,101150.44
2022-10-08T11:31:29.065Z,101146.88
2022-10-08T11:33:58.111Z,101149.13
2022-10-08T11:36:35.451Z,101147.19
2022-10-08T11:39:14.512Z,101146.94
2022-10-08T11:41:53.449Z,101154.66
2022-10-08T11:44:22.205Z,101156.19
2022-10-08T11:46:50.524Z,101155.59
2022-10-08T11:49:53.994Z,101153.84
2022-10-08T11:52:22.297Z,101154.78
2022-10-08T11:54:55.846Z,101153.06
2022-10-08T11:57:49.345Z,101152.63
2022-10-08T12:00:40.637Z,101150.47
2022-10-08T12:03:22.975Z,101159.44
2022-10-08T12:05:54.210Z,101158.97
2022-10-08T12:08:48.612Z,101153.59
2022-10-08T12:11:48.985Z,101151.19
2022-10-08T12:14:48.765Z,101151.28
2022-10-08T12:17:17.512Z,101157.34
2022-10-08T12:20:02.188Z,101155.81
2022-10-08T12:22:59.665Z,101157.13
2022-10-08T12:25:40.857Z,101150.75
2022-10-08T12:28:50.167Z,101165.47
2022-10-08T12:31:28.950Z,101161.44
2022-10-08T12:34:03.127Z,101162.81
2022-10-08T12:36:46.882Z,101166.44
2022-10-08T12:39:23.114Z,101164.53
2022-10-08T12:42:00.307Z,101165.38
2022-10-08T12:44:40.987Z,101151.00
2022-10-08T12:47:22.577Z,101151.31
2022-10-08T12:49:57.930Z,101150.66
2022-10-08T12:52:27.127Z,101154.00
2022-10-08T12:54:57.978Z,101153.88
2022-10-08T12:57:30.264Z,101157.31
2022-10-08T13:00:01.775Z,101152.38
2022-10-08T13:02:38.101Z,101152.91
2022-10-08T13:05:08.198Z,101159.94
2022-10-08T13:07:36.409Z,101163.31
2022-10-08T13:10:18.906Z,101164.91
2022-10-08T13:12:59.879Z,101163.94
2022-10-08T13:15:30.699Z,101170.72
2022-10-08T13:17:58.879Z,101168.03
2022-10-08T13:20:27.120Z,101170.88
2022-10-08T13:22:55.315Z,101178.16
2022-10-08T13:25:33.388Z,101164.03
2022-10-08T13:28:09.178Z,101167.66
2022-10-08T13:30:39.374Z,101165.69
2022-10-08T13:33:14.451Z,101167.19
2022-10-08T13:35:43.988Z,101176.63
2022-10-08T13:38:22.110Z,101183.59
2022-10-08T13:40:53.271Z,101175.28
2022-10-08T13:43:22.566Z,101170.91
2022-10-08T13:45:52.316Z,101176.94
2022-10-08T13:48:20.552Z,101176.81
2022-10-08T13:50:50.373Z,101173.91
2022-10-08T13:53:21.732Z,101174.00
2022-10-08T13:55:51.232Z,101163.16
2022-10-08T13:58:20.924Z,101171.69
2022-10-08T14:00:50.071Z,101175.56
2022-10-08T14:03:19.608Z,101171.88
2022-10-08T14:05:49.536Z,101177.47
2022-10-08T14:08:20.630Z,101171.22
2022-10-08T14:10:48.998Z,101176.97
2022-10-08T14:13:17.579Z,101172.72
2022-10-08T14:15:45.800Z,101165.78
2022-10-08T14:18:13.934Z,101173.88
2022-10-08T14:20:43.618Z,101179.16
2022-10-08T14:23:13.843Z,101163.53
2022-10-08T14:25:42.152Z,101169.63
2022-10-08T14:28:10.314Z,101169.16
2022-10-08T14:30:38.477Z,101171.91
2022-10-08T14:33:11.004Z,101171.97
2022-10-08T14:35:39.734Z,101170.69
2022-10-08T14:38:09.549Z,101175.75
2022-10-08T14:40:37.810Z,101181.34
2022-10-08T14:43:05.917Z,101187.13
2022-10-08T14:45:34.119Z,101195.28
2022-10-08T14:48:02.643Z,101185.44
2022-10-08T14:50:30.764Z,101181.66
2022-10-08T14:52:58.891Z,101174.88
2022-10-08T14:55:28.353Z,101176.50
2022-10-08T14:57:56.701Z,101191.28
2022-10-08T15:00:24.811Z,101188.38
2022-10-08T15:02:52.933Z,101189.78
2022-10-08T15:05:21.073Z,101201.34
2022-10-08T15:07:49.469Z,101195.59
2022-10-08T15:10:17.953Z,101199.69
2022-10-08T15:12:47.608Z,101208.88
2022-10-08T15:15:18.527Z,101215.50
2022-10-08T15:17:47.548Z,101212.88
2022-10-08T15:20:16.720Z,101218.13
2022-10-08T15:22:45.095Z,101225.94
2022-10-08T15:25:13.428Z,101225.63
2022-10-08T15:27:41.664Z,101228.72
2022-10-08T15:30:13.211Z,101228.19
2022-10-08T15:32:41.365Z,101234.69
2022-10-08T15:35:11.193Z,101249.53
2022-10-08T15:37:39.587Z,101256.44
2022-10-08T15:40:08.524Z,101247.78
2022-10-08T15:42:36.763Z,101263.69
2022-10-08T15:45:05.540Z,101268.97
2022-10-08T15:47:35.004Z,101264.84
2022-10-08T15:50:03.332Z,101274.41
2022-10-08T15:52:33.203Z,101277.88
2022-10-08T15:55:02.558Z,101291.66
2022-10-08T15:57:30.691Z,101285.94
2022-10-08T15:59:59.341Z,101289.84
2022-10-08T16:02:27.629Z,101306.22
2022-10-08T16:04:57.388Z,101306.22
2022-10-08T16:07:25.500Z,101301.75
2022-10-08T16:09:53.617Z,101317.34
2022-10-08T16:12:21.739Z,101323.94
2022-10-08T16:14:49.877Z,101315.00
2022-10-08T16:17:18.010Z,101328.09
2022-10-08T16:19:46.194Z,101318.78
2022-10-08T16:22:16.103Z,101322.47
2022-10-08T16:24:44.224Z,101332.06
2022-10-08T16:27:12.355Z,101332.69
2022-10-08T16:29:40.496Z,101333.72
2022-10-08T16:32:10.910Z,101327.75
2022-10-08T16:34:41.834Z,101335.66
2022-10-08T16:37:12.966Z,101341.84
2022-10-08T16:39:42.695Z,101345.88
2022-10-08T16:42:11.166Z,101344.22
2022-10-08T16:44:39.612Z,101353.44
2022-10-08T16:47:07.771Z,101366.13
2022-10-08T16:49:35.894Z,101367.63
2022-10-08T16:52:08.078Z,101370.28
2022-10-08T16:54:36.488Z,101375.22
2022-10-08T16:57:06.001Z,101371.19
2022-10-08T16:59:34.150Z,101383.72
2022-10-08T17:02:03.571Z,101380.53
2022-10-08T17:04:38.863Z,101383.72
2022-10-08T17:07:07.912Z,101393.53
2022-10-08T17:09:36.595Z,101396.25
2022-10-08T17:12:06.249Z,101399.06
2022-10-08T17:14:34.457Z,101405.34
2022-10-08T17:17:02.638Z,101407.22
2022-10-08T17:19:30.876Z,101399.59
2022-10-08T17:21:59.163Z,101403.22
2022-10-08T17:24:27.358Z,101406.72
2022-10-08T17:26:55.477Z,101416.84
2022-10-08T17:29:24.924Z,101419.09
2022-10-08T17:31:53.153Z,101430.13
2022-10-08T17:34:21.265Z,101432.28
2022-10-08T17:36:49.405Z,101442.06
2022-10-08T17:39:17.517Z,101456.31
2022-10-08T17:41:45.628Z,101442.75
2022-10-08T17:44:14.529Z,101445.50
2022-10-08T17:46:46.862Z,101446.75
2022-10-08T17:49:16.359Z,101455.13
2022-10-08T17:51:44.898Z,101455.06
2022-10-08T17:54:15.149Z,101461.72
2022-10-08T17:56:43.839Z,101462.97
2022-10-08T17:59:14.728Z,101469.31
2022-10-08T18:01:45.874Z,101474.25
2022-10-08T18:04:16.786Z,101475.56
2022-10-08T18:06:47.261Z,101483.56
2022-10-08T18:09:18.237Z,101482.31
2022-10-08T18:11:48.623Z,101482.34
2022-10-08T18:14:17.414Z,101496.34
2022-10-08T18:16:48.510Z,101495.63
2022-10-08T18:19:17.293Z,101495.69
2022-10-08T18:21:45.671Z,101503.13
2022-10-08T18:24:14.026Z,101510.53
2022-10-08T18:26:42.175Z,101501.41
2022-10-08T18:29:12.469Z,101505.84
2022-10-08T18:31:42.197Z,101503.91
2022-10-08T18:34:14.853Z,101511.91
2022-10-08T18:36:43.741Z,101516.41
2022-10-08T18:39:14.787Z,101522.78
2022-10-08T18:41:45.127Z,101516.53
2022-10-08T18:44:15.523Z,101520.81
2022-10-08T18:46:44.766Z,101523.28
2022-10-08T18:49:15.713Z,101535.03
2022-10-08T18:51:44.033Z,101523.56
2022-10-08T18:54:12.644Z,101534.91
2022-10-08T18:56:41.432Z,101534.25
2022-10-08T18:59:12.880Z,101530.72
2022-10-08T19:01:43.331Z,101539.00
2022-10-08T19:04:16.388Z,101531.31
2022-10-08T19:06:46.867Z,101539.25
2022-10-08T19:09:15.315Z,101546.47
2022-10-08T19:11:45.497Z,101542.63
2022-10-08T19:14:15.897Z,101544.03
2022-10-08T19:16:44.399Z,101539.28
2022-10-08T19:19:16.549Z,101547.03
2022-10-08T19:21:45.190Z,101544.97
2022-10-08T19:24:15.141Z,101545.84
2022-10-08T19:26:43.489Z,101554.19
2022-10-08T19:29:15.664Z,101566.38
2022-10-08T19:31:47.264Z,101560.59
2022-10-08T19:34:19.283Z,101566.50
2022-10-08T19:36:47.941Z,101578.19
2022-10-08T19:39:18.362Z,101578.59
2022-10-08T19:41:46.572Z,101593.34
2022-10-08T19:44:16.486Z,101588.63
2022-10-08T19:46:44.867Z,101592.69
2022-10-08T19:49:13.428Z,101600.25
2022-10-08T19:51:43.269Z,101608.19
2022-10-08T19:54:12.004Z,101612.50
2022-10-08T19:56:40.151Z,101611.47
2022-10-08T19:59:08.321Z,101613.22
2022-10-08T20:01:37.592Z,101614.06
2022-10-08T20:04:07.739Z,101623.19
2022-10-08T20:06:39.181Z,101625.13
2022-10-08T20:09:11.943Z,101626.50
2022-10-08T20:11:41.338Z,101632.56
2022-10-08T20:14:09.546Z,101632.53
2022-10-08T20:16:39.557Z,101641.63
2022-10-08T20:19:09.839Z,101645.56
2022-10-08T20:21:38.953Z,101649.38
2022-10-08T20:24:08.467Z,101655.22
2022-10-08T20:26:37.740Z,101657.50
2022-10-08T20:29:07.845Z,101660.00
2022-10-08T20:31:37.434Z,101666.09
2022-10-08T20:34:07.892Z,101665.34
2022-10-08T20:36:36.187Z,101673.50
2022-10-08T20:39:04.876Z,101672.00
2022-10-08T20:41:34.454Z,101684.41
2022-10-08T20:44:04.027Z,101686.09
2022-10-08T20:46:33.891Z,101697.09
2022-10-08T20:49:02.362Z,101699.56
2022-10-08T20:51:33.361Z,101697.78
2022-10-08T20:54:03.572Z,101706.09
2022-10-08T20:56:37.151Z,101703.13
2022-10-08T20:59:09.656Z,101709.16
2022-10-08T21:01:39.305Z,101716.63
2022-10-08T21:04:08.278Z,101708.28
2022-10-08T21:06:39.715Z,101720.78
2022-10-08T21:09:08.939Z,101729.19
2022-10-08T21:11:37.924Z,101720.97
2022-10-08T21:14:07.459Z,101724.72
2022-10-08T21:16:39.285Z,101731.25
2022-10-08T21:19:10.990Z,101731.91
2022-10-08T21:21:39.305Z,101737.03
2022-10-08T21:24:07.832Z,101740.72
2022-10-08T21:26:38.408Z,101749.16
2022-10-08T21:29:08.653Z,101743.09
2022-10-08T21:31:40.183Z,101746.31
2022-10-08T21:34:09.044Z,101736.09
2022-10-08T21:36:39.305Z,101740.50
2022-10-08T21:39:09.841Z,101750.00
2022-10-08T21:41:38.717Z,101747.09
2022-10-08T21:44:08.869Z,101752.34
2022-10-08T21:46:40.741Z,101753.72
2022-10-08T21:49:11.904Z,101754.97
2022-10-08T21:51:40.195Z,101756.19
2022-10-08T21:54:08.441Z,101767.63
2022-10-08T21:56:38.325Z,101768.94
2022-10-08T21:59:09.050Z,101773.22
2022-10-08T22:01:40.521Z,101778.06
2022-10-08T22:04:10.231Z,101791.25
2022-10-08T22:06:40.541Z,101795.28
2022-10-08T22:09:10.705Z,101793.31
2022-10-08T22:11:39.142Z,101796.59
2022-10-08T22:14:07.485Z,101797.84
2022-10-08T22:16:35.953Z,101804.81
2022-10-08T22:19:06.304Z,101803.66
2022-10-08T22:21:35.142Z,101807.97
2022-10-08T22:24:03.865Z,101811.88
2022-10-08T22:26:34.670Z,101809.75
2022-10-08T22:29:03.337Z,101810.91
2022-10-08T22:31:32.190Z,101817.63
2022-10-08T22:34:00.497Z,101815.41
2022-10-08T22:36:31.608Z,101813.44
2022-10-08T22:39:00.065Z,101820.00
2022-10-08T22:41:30.096Z,101820.56
2022-10-08T22:43:59.207Z,101829.97
2022-10-08T22:46:29.661Z,101823.31
2022-10-08T22:48:58.309Z,101836.84
2022-10-08T22:51:27.238Z,101835.84
2022-10-08T22:53:57.312Z,101842.63
2022-10-08T22:56:27.910Z,101811.97
2022-10-08T22:58:56.578Z,101820.19
2022-10-08T23:01:26.453Z,101821.19
2022-10-08T23:03:55.098Z,101812.19
2022-10-08T23:06:24.834Z,101814.13
2022-10-08T23:08:57.682Z,101815.69
2022-10-08T23:11:27.268Z,101816.28
2022-10-08T23:13:56.803Z,101821.72
2022-10-08T23:16:26.205Z,101822.88
2022-10-08T23:18:56.755Z,101828.59
2022-10-08T23:21:25.102Z,101835.50
2022-10-08T23:23:54.455Z,101836.09
2022-10-08T23:26:25.076Z,101842.59
2022-10-08T23:28:55.468Z,101846.44
2022-10-08T23:31:25.986Z,101849.09
2022-10-08T23:33:55.481Z,101849.38
2022-10-08T23:36:25.189Z,101857.47
2022-10-08T23:38:53.675Z,101861.41
2022-10-08T23:41:21.793Z,101868.41
2022-10-08T23:43:52.725Z,101874.72
2022-10-08T23:46:23.040Z,101877.19
2022-10-08T23:48:52.287Z,101879.84
2022-10-08T23:51:21.609Z,101881.28
2022-10-08T23:53:51.276Z,101884.75
2022-10-08T23:56:19.946Z,101895.28
2022-10-08T23:58:48.446Z,101890.69
